To NAV CANADA Home Page Login to a new session Search on AWWS site Feedback and Comments Disclaimer Vers la page française équivalente Tips FAQ What's new on the site To the Forecasts and Observations / NOTAM section To "File a Flight Plan" website Publications and other links Update of the User's profile FIC Telephone Numbers My Weather Data Folder Route Weather Data Regional Weather Data Local Weather Data To the Forecasts and Observations / NOTAM section
Request Generated 03/04/2015 at 06:56:42 UTC . Weather information available at that time is displayed.

METAR/TAF

ROBERVAL/QC    

METAR CYRJ 040600Z 12006KT 090V150 1SM -SN VV006 M10/M12 A2948 RMK
SN8 SLP997=
METAR CYRJ 040500Z 12007KT 1SM -SN VV010 M10/M12 A2950 RMK SN8
SLP005=
METAR CYRJ 040400Z 11007KT 1SM -SN VV006 M11/M12 A2955 RMK SN8 CIG
VRB 4-8 /S02/ PRESFR SLP023=

*** REMARK        : Forecast period has ended; this was the last TAF issued
*** REMARQUE : La période de prévision est échue; ceci était le dernier TAF qui a été émis
TAF AMD CYRJ 040200Z 0402/0403 19010G20KT 1SM -SN VV008 TEMPO
0402/0403 3SM -SN OVC020
RMK NXT FCST WILL BE ISSUED AT 041245Z=
Your time UTC time
Weather data provided by Environment Canada and NAV CANADA